Time;durP1;ratioP1;P1;durP2;ratioP2;P2;SDS_P1;SDS_P2;PMS_P1;PMS_P2;Temp;Humidity;BMP_temperature;BMP_pressure;BME280_temperature;BME280_humidity;BME280_pressure;Samples;Min_cycle;Max_cycle;Signal;HPM_P1;HPM_P2
2022/03/21 00:00:42;;;;;;;19.03;10.73;;;;;;;;;;5029354;28;20251;-67
2022/03/21 00:03:09;;;;;;;21.02;10.07;;;;;;;;;;5015391;28;20577;-67
2022/03/21 00:05:35;;;;;;;17.55;9.43;;;;;;;;;;5042353;28;20584;-67
2022/03/21 00:08:02;;;;;;;18.23;10.07;;;;;;;;;;5027083;28;20182;-67
2022/03/21 00:10:28;;;;;;;21.85;10.63;;;;;;;;;;5034668;28;20412;-66
2022/03/21 00:12:54;;;;;;;18.27;9.30;;;;;;;;;;5017591;28;20705;-66
2022/03/21 00:15:20;;;;;;;19.20;10.27;;;;;;;;;;5033246;28;20197;-66
2022/03/21 00:17:45;;;;;;;18.77;9.73;;;;;;;;;;5027222;28;20179;-68
2022/03/21 00:20:12;;;;;;;26.87;11.20;;;;;;;;;;5026149;28;20529;-67
2022/03/21 00:22:38;;;;;;;20.02;10.60;;;;;;;;;;5025873;28;20182;-67
2022/03/21 00:25:05;;;;;;;18.73;9.73;;;;;;;;;;5027063;28;20181;-66
2022/03/21 00:27:35;;;;;;;21.27;10.87;;;;;;;;;;5023392;28;20183;-67
2022/03/21 00:30:01;;;;;;;22.13;10.63;;;;;;;;;;5026156;28;20212;-67
2022/03/21 00:32:27;;;;;;;22.73;9.83;;;;;;;;;;5025742;28;20603;-67
2022/03/21 00:34:52;;;;;;;16.50;9.70;;;;;;;;;;5019280;28;20265;-67
2022/03/21 00:37:17;;;;;;;24.43;10.70;;;;;;;;;;5041418;28;20185;-67
2022/03/21 00:39:43;;;;;;;22.30;10.00;;;;;;;;;;5014556;28;20271;-67
2022/03/21 00:42:10;;;;;;;22.03;10.53;;;;;;;;;;5015503;28;20705;-67
2022/03/21 00:44:37;;;;;;;19.50;9.93;;;;;;;;;;5024767;28;20208;-67
2022/03/21 00:47:03;;;;;;;20.97;10.93;;;;;;;;;;5040431;28;20181;-67
2022/03/21 00:49:28;;;;;;;23.10;10.77;;;;;;;;;;5018233;28;20213;-67
2022/03/21 00:51:53;;;;;;;24.23;10.23;;;;;;;;;;5028369;28;20417;-67
2022/03/21 00:54:19;;;;;;;19.10;10.63;;;;;;;;;;5025207;28;20189;-67
2022/03/21 00:56:44;;;;;;;19.43;10.33;;;;;;;;;;5026562;28;20259;-67
2022/03/21 00:59:09;;;;;;;21.00;10.70;;;;;;;;;;5017826;28;20186;-67
2022/03/21 01:01:35;;;;;;;22.17;10.93;;;;;;;;;;5022393;28;20655;-67
2022/03/21 01:04:00;;;;;;;20.30;10.43;;;;;;;;;;5023153;28;20183;-67
2022/03/21 01:06:25;;;;;;;17.10;9.80;;;;;;;;;;5025836;28;20186;-67
2022/03/21 01:08:51;;;;;;;25.20;10.87;;;;;;;;;;5024904;28;20229;-69
2022/03/21 01:11:16;;;;;;;24.50;11.13;;;;;;;;;;5038019;28;20303;-67
2022/03/21 01:13:42;;;;;;;20.93;10.63;;;;;;;;;;5028759;28;20193;-67
2022/03/21 01:16:10;;;;;;;21.00;10.60;;;;;;;;;;5023878;28;20185;-67
2022/03/21 01:18:36;;;;;;;21.87;10.33;;;;;;;;;;5029937;28;20268;-67
2022/03/21 01:21:02;;;;;;;22.13;11.40;;;;;;;;;;5030137;28;20285;-68
2022/03/21 01:23:27;;;;;;;22.10;11.03;;;;;;;;;;5017745;28;20182;-67
2022/03/21 01:25:53;;;;;;;22.33;11.03;;;;;;;;;;5026897;28;20181;-67
2022/03/21 01:28:18;;;;;;;20.10;10.70;;;;;;;;;;5025577;28;20198;-67
2022/03/21 01:30:43;;;;;;;23.93;11.20;;;;;;;;;;5031679;28;20260;-67
2022/03/21 01:33:09;;;;;;;25.87;11.97;;;;;;;;;;5028986;28;20186;-67
2022/03/21 01:35:34;;;;;;;25.97;11.97;;;;;;;;;;5023248;28;21146;-67
2022/03/21 01:38:00;;;;;;;23.03;11.90;;;;;;;;;;5038287;28;20185;-67
2022/03/21 01:40:25;;;;;;;21.33;11.10;;;;;;;;;;5021817;28;20602;-67
2022/03/21 01:42:51;;;;;;;26.07;11.67;;;;;;;;;;5023781;28;20633;-67
2022/03/21 01:45:17;;;;;;;22.27;11.50;;;;;;;;;;5021770;28;20189;-67
2022/03/21 01:47:44;;;;;;;21.63;11.77;;;;;;;;;;5021778;28;20236;-67
2022/03/21 01:50:11;;;;;;;20.57;10.70;;;;;;;;;;5026353;28;20190;-66
2022/03/21 01:52:36;;;;;;;25.47;11.53;;;;;;;;;;5034475;28;20816;-67
2022/03/21 01:57:48;;;;;;;22.20;11.53;;;;;;;;;;5020565;28;20193;-66
2022/03/21 02:00:14;;;;;;;23.23;10.57;;;;;;;;;;5030246;28;20263;-67
2022/03/21 02:02:39;;;;;;;22.70;11.07;;;;;;;;;;5024537;28;20231;-67
2022/03/21 02:05:05;;;;;;;25.00;11.50;;;;;;;;;;5016636;28;20274;-68
2022/03/21 02:07:31;;;;;;;25.30;11.00;;;;;;;;;;5042222;28;20178;-67
2022/03/21 02:09:56;;;;;;;24.10;11.47;;;;;;;;;;5025140;28;20693;-67
2022/03/21 02:12:22;;;;;;;22.97;11.07;;;;;;;;;;5031999;28;20569;-67
2022/03/21 02:14:48;;;;;;;20.77;11.10;;;;;;;;;;5017845;28;20186;-67
2022/03/21 02:17:18;;;;;;;23.00;10.67;;;;;;;;;;5019930;28;20641;-67
2022/03/21 02:19:45;;;;;;;20.80;11.87;;;;;;;;;;5023553;28;20483;-67
2022/03/21 02:22:29;;;;;;;25.00;11.67;;;;;;;;;;5029678;28;20328;-67
2022/03/21 02:25:02;;;;;;;25.20;11.70;;;;;;;;;;5020179;28;20261;-65
2022/03/21 02:27:30;;;;;;;24.03;11.23;;;;;;;;;;5024150;28;20543;-66
2022/03/21 02:29:56;;;;;;;23.63;11.63;;;;;;;;;;5023129;28;20208;-67
2022/03/21 02:32:22;;;;;;;25.17;11.53;;;;;;;;;;5030622;28;20339;-67
2022/03/21 02:34:48;;;;;;;21.70;11.67;;;;;;;;;;5027704;28;20209;-67
2022/03/21 02:37:16;;;;;;;25.73;12.60;;;;;;;;;;5037273;28;20186;-67
2022/03/21 02:39:43;;;;;;;21.23;11.20;;;;;;;;;;5025939;28;20348;-67
2022/03/21 02:42:09;;;;;;;22.10;11.03;;;;;;;;;;5032739;28;20224;-67
2022/03/21 02:44:36;;;;;;;25.23;11.63;;;;;;;;;;5027479;28;20232;-67
2022/03/21 02:47:02;;;;;;;21.73;11.17;;;;;;;;;;5029929;28;20171;-66
2022/03/21 02:49:28;;;;;;;21.30;11.67;;;;;;;;;;5020372;28;20277;-67
2022/03/21 02:51:54;;;;;;;26.00;11.93;;;;;;;;;;5016989;28;20313;-66
2022/03/21 02:54:22;;;;;;;24.70;11.73;;;;;;;;;;5017216;28;20674;-67
2022/03/21 02:56:48;;;;;;;22.70;11.20;;;;;;;;;;5028684;28;20182;-68
2022/03/21 02:59:15;;;;;;;20.77;11.03;;;;;;;;;;5014405;28;20197;-67
2022/03/21 03:01:41;;;;;;;25.00;12.70;;;;;;;;;;5013922;28;20185;-67
2022/03/21 03:04:07;;;;;;;23.10;11.57;;;;;;;;;;5026569;28;20186;-66
2022/03/21 03:06:32;;;;;;;24.83;12.60;;;;;;;;;;5029207;28;20193;-67
2022/03/21 03:08:57;;;;;;;27.17;12.60;;;;;;;;;;5025406;28;20190;-67
2022/03/21 03:11:23;;;;;;;21.93;12.00;;;;;;;;;;5032276;28;20583;-67
2022/03/21 03:13:48;;;;;;;21.53;11.23;;;;;;;;;;5019766;28;20525;-67
2022/03/21 03:16:14;;;;;;;23.57;12.13;;;;;;;;;;5026644;28;20680;-67
2022/03/21 03:18:44;;;;;;;25.00;12.63;;;;;;;;;;5036147;28;20191;-67
2022/03/21 03:21:10;;;;;;;22.43;11.20;;;;;;;;;;5029092;28;20577;-66
2022/03/21 03:23:38;;;;;;;21.80;12.07;;;;;;;;;;5031859;28;20189;-66
2022/03/21 03:26:05;;;;;;;24.63;12.70;;;;;;;;;;5030055;28;20532;-67
2022/03/21 03:28:31;;;;;;;23.10;11.90;;;;;;;;;;5034987;28;20193;-67
2022/03/21 03:30:58;;;;;;;24.13;11.77;;;;;;;;;;5033408;28;20201;-67
2022/03/21 03:33:24;;;;;;;23.80;12.30;;;;;;;;;;5035375;28;20594;-67
2022/03/21 03:35:49;;;;;;;20.87;11.97;;;;;;;;;;5025488;28;20186;-68
2022/03/21 03:38:16;;;;;;;22.93;12.37;;;;;;;;;;5034311;28;20264;-67
2022/03/21 03:40:43;;;;;;;23.87;12.00;;;;;;;;;;5016037;28;20559;-68
2022/03/21 03:43:08;;;;;;;25.67;13.20;;;;;;;;;;5039525;28;20224;-67
2022/03/21 03:45:33;;;;;;;24.07;13.40;;;;;;;;;;5029844;28;20740;-67
2022/03/21 03:47:59;;;;;;;21.33;12.87;;;;;;;;;;5043697;28;20204;-67
2022/03/21 03:50:24;;;;;;;25.50;12.10;;;;;;;;;;5037715;28;20649;-67
2022/03/21 03:52:49;;;;;;;23.40;13.00;;;;;;;;;;5030302;28;20202;-67
2022/03/21 03:55:17;;;;;;;26.53;13.53;;;;;;;;;;5028909;28;20607;-67
2022/03/21 03:57:44;;;;;;;28.57;13.87;;;;;;;;;;5045039;28;20241;-67
2022/03/21 04:00:11;;;;;;;26.07;13.13;;;;;;;;;;5037671;28;20182;-67
2022/03/21 04:03:44;;;;;;;31.07;14.60;;;;;;;;;;5030694;28;20264;-66
2022/03/21 04:05:22;;;;;;;27.37;13.17;;;;;;;;;;5038090;28;20193;-67
2022/03/21 04:07:49;;;;;;;28.37;13.63;;;;;;;;;;5038758;28;20649;-66
2022/03/21 04:10:14;;;;;;;30.17;14.13;;;;;;;;;;5026710;28;20174;-67
2022/03/21 04:12:40;;;;;;;26.33;13.23;;;;;;;;;;5032783;28;20233;-68
2022/03/21 04:15:07;;;;;;;31.77;13.83;;;;;;;;;;5039502;28;20181;-68
2022/03/21 04:17:34;;;;;;;26.00;13.30;;;;;;;;;;5041128;28;20733;-67
2022/03/21 04:19:59;;;;;;;29.20;13.23;;;;;;;;;;5029881;28;20196;-67
2022/03/21 04:22:25;;;;;;;29.53;13.37;;;;;;;;;;5031924;28;20182;-68
2022/03/21 04:24:50;;;;;;;34.67;15.40;;;;;;;;;;5024426;28;20182;-66
2022/03/21 04:27:15;;;;;;;33.27;14.53;;;;;;;;;;5032945;28;20179;-66
2022/03/21 04:29:41;;;;;;;28.43;14.33;;;;;;;;;;5041669;28;20243;-67
2022/03/21 04:32:06;;;;;;;29.90;14.03;;;;;;;;;;5040872;28;20206;-67
2022/03/21 04:34:31;;;;;;;23.03;13.03;;;;;;;;;;5027467;28;20178;-67
2022/03/21 04:36:57;;;;;;;26.27;12.80;;;;;;;;;;5025139;28;20209;-67
2022/03/21 04:39:22;;;;;;;27.93;13.57;;;;;;;;;;5039875;28;20264;-67
2022/03/21 04:41:48;;;;;;;24.77;13.20;;;;;;;;;;5041959;28;20641;-67
2022/03/21 04:44:13;;;;;;;35.27;16.40;;;;;;;;;;5029393;28;20245;-67
2022/03/21 04:46:38;;;;;;;48.63;20.50;;;;;;;;;;5036183;28;20196;-67
2022/03/21 04:49:03;;;;;;;47.33;21.93;;;;;;;;;;5038574;28;20186;-67
2022/03/21 04:51:29;;;;;;;44.27;20.67;;;;;;;;;;5035794;28;20721;-67
2022/03/21 04:53:54;;;;;;;34.27;16.80;;;;;;;;;;5042676;28;20206;-69
2022/03/21 04:56:20;;;;;;;38.20;17.70;;;;;;;;;;5030742;28;20220;-68
2022/03/21 04:58:45;;;;;;;29.53;15.83;;;;;;;;;;5041360;28;20216;-68
2022/03/21 05:01:10;;;;;;;33.20;15.20;;;;;;;;;;5041516;28;20178;-67
2022/03/21 05:03:36;;;;;;;29.77;14.57;;;;;;;;;;5026784;28;20393;-67
2022/03/21 05:06:01;;;;;;;28.40;13.60;;;;;;;;;;5021109;28;20257;-67
2022/03/21 05:08:26;;;;;;;31.23;13.80;;;;;;;;;;5025847;28;20505;-67
2022/03/21 05:10:52;;;;;;;28.47;14.50;;;;;;;;;;5043505;28;20752;-67
2022/03/21 05:13:17;;;;;;;32.07;14.23;;;;;;;;;;5032582;28;20326;-67
2022/03/21 05:15:43;;;;;;;27.40;12.33;;;;;;;;;;5017686;28;20682;-67
2022/03/21 05:18:08;;;;;;;23.57;11.97;;;;;;;;;;5025367;28;20189;-68
2022/03/21 05:20:33;;;;;;;29.23;13.73;;;;;;;;;;5015637;28;20181;-67
2022/03/21 05:31:11;;;;;;;24.60;11.10;;;;;;;;;;5021444;28;20297;-67
2022/03/21 05:36:24;;;;;;;28.10;12.30;;;;;;;;;;5030151;28;20191;-66
2022/03/21 05:38:50;;;;;;;25.77;12.93;;;;;;;;;;5030972;28;20184;-67
2022/03/21 05:41:15;;;;;;;28.13;12.77;;;;;;;;;;5021470;28;20182;-67
2022/03/21 05:43:41;;;;;;;26.53;11.43;;;;;;;;;;5028939;28;20211;-67
2022/03/21 05:46:06;;;;;;;19.33;9.50;;;;;;;;;;5038093;28;20244;-67
2022/03/21 05:48:51;;;;;;;25.43;12.27;;;;;;;;;;5033318;28;20190;-67
2022/03/21 05:51:18;;;;;;;22.17;10.83;;;;;;;;;;5017214;28;20606;-67
2022/03/21 05:53:48;;;;;;;17.37;9.20;;;;;;;;;;5034182;28;20244;-67
2022/03/21 05:56:14;;;;;;;19.00;9.77;;;;;;;;;;5031575;28;20604;-66
2022/03/21 05:58:40;;;;;;;18.23;9.33;;;;;;;;;;5032452;28;20497;-66
2022/03/21 06:01:05;;;;;;;24.10;9.80;;;;;;;;;;5036196;28;20276;-66
2022/03/21 06:03:31;;;;;;;23.70;10.47;;;;;;;;;;5023490;28;20268;-66
2022/03/21 06:05:58;;;;;;;22.97;10.50;;;;;;;;;;5037513;28;20235;-67
2022/03/21 06:08:24;;;;;;;20.73;10.50;;;;;;;;;;5041255;28;20170;-66
2022/03/21 06:10:50;;;;;;;23.13;11.83;;;;;;;;;;5039151;28;20585;-66
2022/03/21 06:13:16;;;;;;;21.93;11.20;;;;;;;;;;5034141;28;20438;-67
2022/03/21 06:15:42;;;;;;;25.57;11.33;;;;;;;;;;5036398;28;20671;-67
2022/03/21 06:18:11;;;;;;;23.17;11.10;;;;;;;;;;5037982;28;20197;-67
2022/03/21 06:20:39;;;;;;;21.40;9.83;;;;;;;;;;5043024;28;20197;-67
2022/03/21 06:23:04;;;;;;;21.27;10.70;;;;;;;;;;5041249;28;20179;-67
2022/03/21 06:25:29;;;;;;;19.97;10.40;;;;;;;;;;5046626;28;20622;-67
2022/03/21 06:27:55;;;;;;;21.47;9.63;;;;;;;;;;5046601;28;20227;-67
2022/03/21 06:30:21;;;;;;;20.27;10.03;;;;;;;;;;5032607;28;20177;-67
2022/03/21 06:32:46;;;;;;;15.60;8.77;;;;;;;;;;5027414;28;20201;-67
2022/03/21 06:35:12;;;;;;;17.30;8.83;;;;;;;;;;5035939;28;20183;-67
2022/03/21 06:37:39;;;;;;;19.17;9.23;;;;;;;;;;5014953;28;20260;-67
2022/03/21 06:40:06;;;;;;;15.00;8.50;;;;;;;;;;5042607;28;20203;-67
2022/03/21 06:42:31;;;;;;;17.17;9.03;;;;;;;;;;5039141;28;20177;-68
2022/03/21 06:44:57;;;;;;;15.37;8.73;;;;;;;;;;5025439;28;20183;-67
2022/03/21 06:47:23;;;;;;;11.90;7.23;;;;;;;;;;5032064;28;20216;-67
2022/03/21 06:49:49;;;;;;;15.33;9.90;;;;;;;;;;5029274;28;20174;-66
2022/03/21 06:52:16;;;;;;;17.90;8.97;;;;;;;;;;5024694;28;20228;-67
2022/03/21 06:54:42;;;;;;;16.23;9.43;;;;;;;;;;5029721;28;20182;-67
2022/03/21 06:57:08;;;;;;;13.40;9.40;;;;;;;;;;5025229;28;20500;-67
2022/03/21 06:59:34;;;;;;;14.30;9.53;;;;;;;;;;5033886;28;20184;-67
2022/03/21 07:02:00;;;;;;;15.73;9.93;;;;;;;;;;5034223;28;20323;-67
2022/03/21 07:04:26;;;;;;;17.23;9.03;;;;;;;;;;5039350;28;20677;-67
2022/03/21 07:06:53;;;;;;;13.53;8.93;;;;;;;;;;5039774;28;20319;-67
2022/03/21 07:09:19;;;;;;;13.17;8.83;;;;;;;;;;5042008;28;20185;-67
2022/03/21 07:11:45;;;;;;;20.13;13.00;;;;;;;;;;5045486;28;20444;-67
2022/03/21 07:14:10;;;;;;;20.60;11.90;;;;;;;;;;5042923;28;20200;-67
2022/03/21 07:16:36;;;;;;;18.57;10.37;;;;;;;;;;5030478;28;20212;-67
2022/03/21 07:19:01;;;;;;;19.87;11.90;;;;;;;;;;5028435;28;20306;-67
2022/03/21 07:21:27;;;;;;;24.13;12.77;;;;;;;;;;5035142;28;20647;-67
2022/03/21 07:23:52;;;;;;;26.43;14.30;;;;;;;;;;5039963;28;20178;-67
2022/03/21 07:26:18;;;;;;;31.63;16.67;;;;;;;;;;5034981;28;20739;-67
2022/03/21 07:28:43;;;;;;;33.10;17.47;;;;;;;;;;5036047;28;20185;-67
2022/03/21 07:31:13;;;;;;;39.53;17.77;;;;;;;;;;5027963;28;20205;-67
2022/03/21 07:33:40;;;;;;;39.17;19.37;;;;;;;;;;5041253;28;20190;-67
2022/03/21 07:36:06;;;;;;;48.70;20.20;;;;;;;;;;5041523;28;20193;-68
2022/03/21 07:38:32;;;;;;;44.03;21.00;;;;;;;;;;5040516;28;20268;-67
2022/03/21 07:40:58;;;;;;;47.30;21.00;;;;;;;;;;5040629;28;20269;-68
2022/03/21 07:43:24;;;;;;;51.23;22.73;;;;;;;;;;5038729;28;20261;-68
2022/03/21 07:48:33;;;;;;;47.53;22.10;;;;;;;;;;5031734;28;20193;-67
2022/03/21 07:50:59;;;;;;;51.27;22.80;;;;;;;;;;5032404;28;20185;-67
2022/03/21 07:53:25;;;;;;;46.47;21.93;;;;;;;;;;5035110;28;20182;-67
2022/03/21 07:55:50;;;;;;;51.17;23.13;;;;;;;;;;5023839;28;20192;-67
2022/03/21 07:58:16;;;;;;;49.23;23.00;;;;;;;;;;5016955;28;20190;-65
2022/03/21 08:00:43;;;;;;;47.17;22.27;;;;;;;;;;5030710;28;20175;-66
2022/03/21 08:03:11;;;;;;;46.33;22.03;;;;;;;;;;5037862;28;20522;-67
2022/03/21 08:05:37;;;;;;;42.70;21.60;;;;;;;;;;5038860;28;20232;-67
2022/03/21 08:08:03;;;;;;;45.47;22.00;;;;;;;;;;5040176;28;20213;-66
2022/03/21 08:10:29;;;;;;;38.37;19.83;;;;;;;;;;5035730;28;20203;-66
2022/03/21 08:12:56;;;;;;;46.00;22.30;;;;;;;;;;5029801;28;20336;-66
2022/03/21 08:15:22;;;;;;;39.77;20.97;;;;;;;;;;5036015;28;20185;-67
2022/03/21 08:17:48;;;;;;;42.07;22.60;;;;;;;;;;5038571;28;20272;-67
2022/03/21 08:20:13;;;;;;;39.77;20.20;;;;;;;;;;5033781;28;20193;-66
2022/03/21 08:22:39;;;;;;;35.47;19.80;;;;;;;;;;5037669;28;20174;-67
2022/03/21 08:25:07;;;;;;;39.43;20.70;;;;;;;;;;5036195;28;20287;-67
2022/03/21 08:27:32;;;;;;;38.27;20.17;;;;;;;;;;5044423;28;20182;-67
2022/03/21 08:29:58;;;;;;;35.60;19.30;;;;;;;;;;5045884;28;20196;-67
2022/03/21 08:32:25;;;;;;;35.83;20.03;;;;;;;;;;5035209;28;20724;-67
2022/03/21 08:34:50;;;;;;;37.27;19.97;;;;;;;;;;5030190;28;20262;-66
2022/03/21 08:37:18;;;;;;;36.10;19.20;;;;;;;;;;5043654;28;20193;-66
2022/03/21 08:39:43;;;;;;;36.00;19.30;;;;;;;;;;5039906;28;20186;-67
2022/03/21 08:42:08;;;;;;;39.35;19.70;;;;;;;;;;5029653;28;20811;-67
2022/03/21 08:44:34;;;;;;;35.60;19.13;;;;;;;;;;5031489;28;20197;-67
2022/03/21 08:46:59;;;;;;;36.17;20.13;;;;;;;;;;5026800;28;20209;-67
2022/03/21 08:49:26;;;;;;;36.75;19.50;;;;;;;;;;5031678;28;20277;-67
2022/03/21 08:51:52;;;;;;;34.65;18.38;;;;;;;;;;5034174;28;20684;-67
2022/03/21 08:54:17;;;;;;;30.83;18.83;;;;;;;;;;5034480;28;20225;-66
2022/03/21 08:56:43;;;;;;;32.78;18.20;;;;;;;;;;5023340;28;20704;-67
2022/03/21 08:59:09;;;;;;;34.03;17.88;;;;;;;;;;5035733;28;20272;-67
2022/03/21 09:01:34;;;;;;;35.45;17.75;;;;;;;;;;5026199;28;20591;-67
2022/03/21 09:04:03;;;;;;;32.22;17.50;;;;;;;;;;5030546;28;20182;-67
2022/03/21 09:06:29;;;;;;;30.05;17.58;;;;;;;;;;5027600;28;20553;-67
2022/03/21 09:08:56;;;;;;;28.25;17.40;;;;;;;;;;5031932;28;20184;-67
2022/03/21 09:11:22;;;;;;;30.20;17.70;;;;;;;;;;5030173;28;20231;-67
2022/03/21 09:13:48;;;;;;;34.80;17.58;;;;;;;;;;5034663;28;20174;-67
2022/03/21 09:16:14;;;;;;;32.50;17.70;;;;;;;;;;5032553;28;20244;-66
2022/03/21 09:18:40;;;;;;;33.33;16.92;;;;;;;;;;5024589;28;20182;-67
2022/03/21 09:21:06;;;;;;;33.40;17.08;;;;;;;;;;5018182;28;20174;-67
2022/03/21 09:23:33;;;;;;;26.83;16.15;;;;;;;;;;5025217;28;20523;-67
2022/03/21 09:26:00;;;;;;;28.52;16.30;;;;;;;;;;5040496;28;20488;-67
2022/03/21 09:28:26;;;;;;;28.63;15.98;;;;;;;;;;5021534;28;20603;-68
2022/03/21 09:30:52;;;;;;;26.83;14.85;;;;;;;;;;5044181;28;20315;-67
2022/03/21 09:33:17;;;;;;;29.23;14.98;;;;;;;;;;5030240;28;20205;-67
2022/03/21 09:35:43;;;;;;;30.30;14.27;;;;;;;;;;5032302;28;20250;-67
2022/03/21 09:38:10;;;;;;;27.17;15.80;;;;;;;;;;5020346;28;20215;-68
2022/03/21 09:40:35;;;;;;;24.50;14.43;;;;;;;;;;5041648;28;20185;-67
2022/03/21 09:43:01;;;;;;;28.00;14.23;;;;;;;;;;5034812;28;20205;-68
2022/03/21 09:45:27;;;;;;;28.08;15.60;;;;;;;;;;5043376;28;20204;-67
2022/03/21 09:48:08;;;;;;;27.83;15.48;;;;;;;;;;5041405;28;20177;-68
2022/03/21 09:50:36;;;;;;;28.48;15.70;;;;;;;;;;5043080;28;20174;-66
2022/03/21 09:53:12;;;;;;;31.05;16.20;;;;;;;;;;5042459;28;20201;-67
2022/03/21 09:55:39;;;;;;;30.60;16.77;;;;;;;;;;5030932;28;20214;-68
2022/03/21 09:58:05;;;;;;;33.63;16.95;;;;;;;;;;5006997;28;20599;-67
2022/03/21 10:00:32;;;;;;;30.00;15.65;;;;;;;;;;5026263;28;20198;-66
2022/03/21 10:02:58;;;;;;;29.35;16.00;;;;;;;;;;5036145;28;20302;-66
2022/03/21 10:05:49;;;;;;;28.45;16.48;;;;;;;;;;5042681;28;20181;-67
2022/03/21 10:08:21;;;;;;;36.65;18.35;;;;;;;;;;5028995;28;20896;-67
2022/03/21 10:10:54;;;;;;;33.00;18.05;;;;;;;;;;5034957;28;20218;-67
2022/03/21 10:13:21;;;;;;;34.85;18.02;;;;;;;;;;5040486;28;20522;-67
2022/03/21 10:15:46;;;;;;;32.92;17.67;;;;;;;;;;5040239;28;20584;-67
2022/03/21 10:18:12;;;;;;;31.30;17.15;;;;;;;;;;5037407;28;20268;-67
2022/03/21 10:20:40;;;;;;;28.23;16.65;;;;;;;;;;5042986;28;20181;-67
2022/03/21 10:23:16;;;;;;;30.02;17.88;;;;;;;;;;5033810;28;20183;-66
2022/03/21 10:25:42;;;;;;;32.47;18.20;;;;;;;;;;5038083;28;20268;-67
2022/03/21 10:28:07;;;;;;;32.33;18.70;;;;;;;;;;5041926;28;20691;-67
2022/03/21 10:30:32;;;;;;;35.67;18.95;;;;;;;;;;5043302;28;20191;-67
2022/03/21 10:32:59;;;;;;;33.42;18.60;;;;;;;;;;5039553;28;20197;-67
2022/03/21 10:35:30;;;;;;;34.95;17.73;;;;;;;;;;5045280;28;20220;-66
2022/03/21 10:38:04;;;;;;;36.38;18.85;;;;;;;;;;5033695;28;20666;-67
2022/03/21 10:40:32;;;;;;;35.40;18.90;;;;;;;;;;5041064;28;20189;-67
2022/03/21 10:43:05;;;;;;;36.08;20.02;;;;;;;;;;5038976;28;20180;-66
2022/03/21 10:45:36;;;;;;;35.63;19.67;;;;;;;;;;5043624;28;20181;-67
2022/03/21 10:48:05;;;;;;;36.05;20.13;;;;;;;;;;5036523;28;20264;-67
2022/03/21 10:50:32;;;;;;;34.33;19.52;;;;;;;;;;5042931;28;20682;-66
2022/03/21 10:53:09;;;;;;;35.30;19.42;;;;;;;;;;5038486;28;20210;-66
2022/03/21 10:55:35;;;;;;;33.72;18.95;;;;;;;;;;5042040;28;20669;-65
2022/03/21 10:58:02;;;;;;;29.98;18.40;;;;;;;;;;5038230;28;20181;-66
2022/03/21 11:00:31;;;;;;;32.92;16.67;;;;;;;;;;5046557;28;20178;-67
2022/03/21 11:03:15;;;;;;;29.00;16.58;;;;;;;;;;5038143;28;20178;-67
2022/03/21 11:05:46;;;;;;;31.63;16.85;;;;;;;;;;5042997;28;20200;-66
2022/03/21 11:08:13;;;;;;;31.92;17.40;;;;;;;;;;5040317;28;20235;-67
2022/03/21 11:10:39;;;;;;;28.08;16.85;;;;;;;;;;5047903;28;20223;-67
2022/03/21 11:13:06;;;;;;;30.00;17.23;;;;;;;;;;5041324;28;20209;-67
2022/03/21 11:15:33;;;;;;;28.65;17.00;;;;;;;;;;5033940;28;20208;-66
2022/03/21 11:17:59;;;;;;;32.15;17.80;;;;;;;;;;5033011;28;20174;-66
2022/03/21 11:20:26;;;;;;;30.70;17.83;;;;;;;;;;5026745;28;20209;-66
2022/03/21 11:22:55;;;;;;;31.40;17.73;;;;;;;;;;5037453;28;20177;-67
2022/03/21 11:25:23;;;;;;;31.85;17.73;;;;;;;;;;5044629;28;20241;-67
2022/03/21 11:28:23;;;;;;;29.63;18.02;;;;;;;;;;5036731;28;20191;-65
2022/03/21 11:31:17;;;;;;;30.17;17.27;;;;;;;;;;5035729;28;20200;-66
2022/03/21 11:33:58;;;;;;;29.90;17.05;;;;;;;;;;5032968;28;20177;-67
2022/03/21 11:36:24;;;;;;;29.98;16.65;;;;;;;;;;5043967;28;20473;-66
2022/03/21 11:38:58;;;;;;;26.02;16.35;;;;;;;;;;5029776;28;20542;-67
2022/03/21 11:41:26;;;;;;;30.02;18.30;;;;;;;;;;5039009;28;20184;-67
2022/03/21 11:44:03;;;;;;;32.35;17.92;;;;;;;;;;5026269;28;20197;-66
2022/03/21 11:46:30;;;;;;;33.97;19.02;;;;;;;;;;5033898;28;20268;-67
2022/03/21 11:48:57;;;;;;;34.33;19.10;;;;;;;;;;5029684;28;20306;-66
2022/03/21 11:51:43;;;;;;;31.52;18.42;;;;;;;;;;5030863;28;20295;-66
2022/03/21 11:54:29;;;;;;;29.23;18.77;;;;;;;;;;5032128;28;20216;-66
2022/03/21 11:56:58;;;;;;;31.48;18.83;;;;;;;;;;5028399;28;20331;-67
2022/03/21 11:59:32;;;;;;;30.27;18.42;;;;;;;;;;5036696;28;20181;-67
2022/03/21 12:01:58;;;;;;;28.73;17.67;;;;;;;;;;5026422;28;20587;-65
2022/03/21 12:04:23;;;;;;;32.70;17.98;;;;;;;;;;5027451;28;20225;-66
2022/03/21 12:06:49;;;;;;;28.65;16.30;;;;;;;;;;5027966;28;20511;-66
2022/03/21 12:09:14;;;;;;;31.50;17.20;;;;;;;;;;5025455;28;20178;-66
2022/03/21 12:11:56;;;;;;;30.73;17.77;;;;;;;;;;5030060;28;20320;-67
2022/03/21 12:14:31;;;;;;;26.48;17.08;;;;;;;;;;5027670;28;20186;-66
2022/03/21 12:17:08;;;;;;;30.17;16.83;;;;;;;;;;5027898;28;20282;-66
2022/03/21 12:19:46;;;;;;;28.98;17.15;;;;;;;;;;5016334;28;20338;-66
2022/03/21 12:22:29;;;;;;;29.10;17.13;;;;;;;;;;5037735;28;20185;-66
2022/03/21 12:25:13;;;;;;;34.47;18.08;;;;;;;;;;5050304;28;20186;-66
2022/03/21 12:27:57;;;;;;;34.20;17.73;;;;;;;;;;5042390;28;20182;-66
2022/03/21 12:30:30;;;;;;;31.73;17.98;;;;;;;;;;5021478;28;20652;-66
2022/03/21 12:33:13;;;;;;;32.33;16.48;;;;;;;;;;5045875;28;20520;-66
2022/03/21 12:35:58;;;;;;;33.08;17.70;;;;;;;;;;5048152;28;20188;-67
2022/03/21 12:38:34;;;;;;;32.08;17.95;;;;;;;;;;5031936;28;20182;-67
2022/03/21 12:41:02;;;;;;;27.52;17.13;;;;;;;;;;5026911;28;20209;-68
2022/03/21 12:43:39;;;;;;;31.55;17.58;;;;;;;;;;5035774;28;20185;-66
2022/03/21 12:46:06;;;;;;;30.08;17.63;;;;;;;;;;5020019;28;20249;-65
2022/03/21 12:48:36;;;;;;;31.65;17.48;;;;;;;;;;5032812;28;20529;-66
2022/03/21 12:51:04;;;;;;;26.75;16.92;;;;;;;;;;5043292;28;20185;-67
2022/03/21 12:53:36;;;;;;;29.98;15.60;;;;;;;;;;5038008;28;20205;-67
2022/03/21 12:56:05;;;;;;;29.95;16.17;;;;;;;;;;5044964;28;20213;-67
2022/03/21 12:58:30;;;;;;;28.13;15.98;;;;;;;;;;5041095;28;20544;-67
2022/03/21 13:01:00;;;;;;;29.73;16.23;;;;;;;;;;5036313;28;20261;-67
2022/03/21 13:03:25;;;;;;;25.95;16.00;;;;;;;;;;5031474;28;20173;-66
2022/03/21 13:11:34;;;;;;;30.52;16.25;;;;;;;;;;5036771;28;20224;-67
2022/03/21 13:14:03;;;;;;;24.02;14.52;;;;;;;;;;5037571;28;20188;-66
2022/03/21 13:16:38;;;;;;;26.48;14.23;;;;;;;;;;5032321;28;20209;-66
2022/03/21 13:19:06;;;;;;;24.90;14.52;;;;;;;;;;5035248;28;20228;-67
2022/03/21 13:21:35;;;;;;;25.90;14.95;;;;;;;;;;5033128;28;20257;-67
2022/03/21 13:24:00;;;;;;;30.27;16.20;;;;;;;;;;5028217;28;20201;-66
2022/03/21 13:26:27;;;;;;;25.48;15.25;;;;;;;;;;5045833;28;20177;-66
2022/03/21 13:29:03;;;;;;;28.02;14.57;;;;;;;;;;5038566;28;20508;-66
2022/03/21 13:31:28;;;;;;;23.27;14.40;;;;;;;;;;5041333;28;20237;-67
2022/03/21 13:34:05;;;;;;;25.00;13.65;;;;;;;;;;5039554;28;20228;-67
2022/03/21 13:36:31;;;;;;;29.10;13.80;;;;;;;;;;5041651;28;20189;-67
2022/03/21 13:39:19;;;;;;;24.30;13.35;;;;;;;;;;5042656;28;20184;-67
2022/03/21 13:42:03;;;;;;;23.40;14.05;;;;;;;;;;5039430;28;20182;-66
2022/03/21 13:44:49;;;;;;;24.88;14.10;;;;;;;;;;5026036;28;20185;-67
2022/03/21 13:47:15;;;;;;;27.55;15.13;;;;;;;;;;5027917;28;20624;-66
2022/03/21 13:50:05;;;;;;;25.50;15.68;;;;;;;;;;5033437;28;20181;-66
2022/03/21 13:52:53;;;;;;;27.65;13.93;;;;;;;;;;5028109;28;20206;-66
2022/03/21 13:55:19;;;;;;;29.02;14.20;;;;;;;;;;5042893;28;20330;-67
2022/03/21 13:58:03;;;;;;;26.55;15.00;;;;;;;;;;5044711;28;20184;-67
2022/03/21 14:00:37;;;;;;;26.10;13.75;;;;;;;;;;5035969;28;20185;-67
2022/03/21 14:03:04;;;;;;;24.65;14.43;;;;;;;;;;5038568;28;20265;-67
2022/03/21 14:05:31;;;;;;;24.42;14.35;;;;;;;;;;5042390;28;20260;-67
2022/03/21 14:08:18;;;;;;;29.75;14.95;;;;;;;;;;5035406;28;20699;-67
2022/03/21 14:10:46;;;;;;;25.75;14.75;;;;;;;;;;5041088;28;20641;-66
2022/03/21 14:13:23;;;;;;;26.90;15.13;;;;;;;;;;5038398;28;20218;-67
2022/03/21 14:15:50;;;;;;;30.00;14.30;;;;;;;;;;5044073;28;20224;-66
2022/03/21 14:18:22;;;;;;;26.33;15.02;;;;;;;;;;5040267;28;20193;-67
2022/03/21 14:20:48;;;;;;;23.25;13.75;;;;;;;;;;5032319;28;20189;-66
2022/03/21 14:23:14;;;;;;;30.52;14.15;;;;;;;;;;5041084;28;20177;-66
2022/03/21 14:28:26;;;;;;;24.20;15.02;;;;;;;;;;5041348;28;20548;-67
2022/03/21 14:30:52;;;;;;;35.13;16.25;;;;;;;;;;5039596;28;20201;-67
2022/03/21 14:33:17;;;;;;;40.83;16.42;;;;;;;;;;5035901;28;20217;-67
2022/03/21 14:35:43;;;;;;;25.25;15.48;;;;;;;;;;5039884;28;20181;-67
2022/03/21 14:38:08;;;;;;;27.80;16.10;;;;;;;;;;5027739;28;20190;-67
2022/03/21 14:40:36;;;;;;;30.17;15.77;;;;;;;;;;5030022;28;20526;-67
2022/03/21 14:43:04;;;;;;;28.13;16.13;;;;;;;;;;5024935;28;20178;-68
2022/03/21 14:45:29;;;;;;;29.55;15.40;;;;;;;;;;5038403;28;20242;-68
2022/03/21 14:47:54;;;;;;;30.35;16.10;;;;;;;;;;5035252;28;20181;-68